createdAt,value
2018-06-19T00:01:27.803Z,12.60
2018-06-19T00:03:58.030Z,12.63
2018-06-19T00:06:26.306Z,13.20
2018-06-19T00:09:07.314Z,13.07
2018-06-19T00:11:39.064Z,13.43
2018-06-19T00:14:09.288Z,16.13
2018-06-19T00:16:37.398Z,13.10
2018-06-19T00:19:15.578Z,12.40
2018-06-19T00:21:52.047Z,15.00
2018-06-19T00:24:40.097Z,12.27
2018-06-19T00:27:22.424Z,12.00
2018-06-19T00:29:52.610Z,13.30
2018-06-19T00:32:20.858Z,13.40
2018-06-19T00:34:48.996Z,14.70
2018-06-19T00:37:17.185Z,12.00
2018-06-19T00:40:02.469Z,12.17
2018-06-19T00:42:30.640Z,14.63
2018-06-19T00:45:17.003Z,12.53
2018-06-19T00:47:45.218Z,16.93
2018-06-19T00:50:19.278Z,14.23
2018-06-19T00:52:52.001Z,13.67
2018-06-19T00:55:24.995Z,15.60
2018-06-19T00:57:53.172Z,14.60
2018-06-19T01:00:28.327Z,14.00
2018-06-19T01:03:59.174Z,13.57
2018-06-19T01:06:31.016Z,15.13
2018-06-19T01:08:59.200Z,15.07
2018-06-19T01:11:27.374Z,15.20
2018-06-19T01:13:56.593Z,17.03
2018-06-19T01:16:27.643Z,16.23
2018-06-19T01:18:56.810Z,19.90
2018-06-19T01:21:24.963Z,19.77
2018-06-19T01:24:05.148Z,21.93
2018-06-19T01:26:33.339Z,19.70
2018-06-19T01:29:01.486Z,20.10
2018-06-19T01:31:29.388Z,20.63
2018-06-19T01:34:08.802Z,18.73
2018-06-19T01:36:46.886Z,21.60
2018-06-19T01:39:23.394Z,19.17
2018-06-19T01:41:56.703Z,16.07
2018-06-19T01:44:29.402Z,17.53
2018-06-19T01:46:57.711Z,20.87
2018-06-19T01:49:25.827Z,20.60
2018-06-19T01:51:59.423Z,17.27
2018-06-19T01:54:33.126Z,19.73
2018-06-19T01:57:20.964Z,19.93
2018-06-19T01:59:49.203Z,20.77
2018-06-19T02:02:21.279Z,18.93
2018-06-19T02:04:52.884Z,17.13
2018-06-19T02:07:21.208Z,17.40
2018-06-19T02:09:50.353Z,18.03
2018-06-19T02:12:18.563Z,18.03
2018-06-19T02:14:58.101Z,22.10
2018-06-19T02:17:38.473Z,17.73
2018-06-19T02:20:06.703Z,17.70
2018-06-19T02:22:34.945Z,17.93
2018-06-19T02:25:04.099Z,19.30
2018-06-19T02:30:45.285Z,16.53
2018-06-19T02:33:14.551Z,16.30
2018-06-19T02:35:42.677Z,18.87
2018-06-19T02:38:10.856Z,18.43
2018-06-19T02:40:44.866Z,16.13
2018-06-19T02:43:23.095Z,18.43
2018-06-19T02:46:03.408Z,16.13
2018-06-19T02:48:31.548Z,15.37
2018-06-19T02:51:06.431Z,18.80
2018-06-19T02:53:40.498Z,18.57
2018-06-19T02:56:14.571Z,19.50
2018-06-19T02:58:42.681Z,20.03
2018-06-19T03:01:10.948Z,18.97
2018-06-19T03:03:39.174Z,17.80
2018-06-19T03:06:08.435Z,16.20
2018-06-19T03:08:36.557Z,17.30
2018-06-19T03:11:11.835Z,19.90
2018-06-19T03:13:46.136Z,16.30
2018-06-19T03:19:00.770Z,17.20
2018-06-19T03:21:40.168Z,19.17
2018-06-19T03:24:13.122Z,18.90
2018-06-19T03:26:45.479Z,17.50
2018-06-19T03:29:13.659Z,19.20
2018-06-19T03:31:43.590Z,21.77
2018-06-19T03:34:12.847Z,19.53
2018-06-19T03:36:48.405Z,19.53
2018-06-19T03:39:23.211Z,18.37
2018-06-19T03:41:53.375Z,18.37
2018-06-19T03:44:21.544Z,16.83
2018-06-19T03:46:54.837Z,18.97
2018-06-19T03:49:30.959Z,17.33
2018-06-19T03:52:03.262Z,18.63
2018-06-19T03:54:31.443Z,16.73
2018-06-19T03:57:05.651Z,18.23
2018-06-19T03:59:33.811Z,17.57
2018-06-19T04:02:14.891Z,15.23
2018-06-19T04:04:44.429Z,16.57
2018-06-19T04:07:30.224Z,18.37
2018-06-19T04:09:59.416Z,18.90
2018-06-19T04:12:33.429Z,18.20
2018-06-19T04:15:04.847Z,17.20
2018-06-19T04:17:39.279Z,17.80
2018-06-19T04:20:09.527Z,16.10
2018-06-19T04:22:38.672Z,15.17
2018-06-19T04:25:09.107Z,18.40
2018-06-19T04:27:39.312Z,16.80
2018-06-19T04:30:12.497Z,18.67
2018-06-19T04:32:40.781Z,14.90
2018-06-19T04:35:08.959Z,16.20
2018-06-19T04:37:39.090Z,17.93
2018-06-19T04:40:08.506Z,15.33
2018-06-19T04:42:42.972Z,13.70
2018-06-19T04:45:11.298Z,20.50
2018-06-19T04:47:56.811Z,15.83
2018-06-19T04:50:31.854Z,15.93
2018-06-19T04:53:00.098Z,15.20
2018-06-19T04:55:28.301Z,15.20
2018-06-19T04:58:09.847Z,15.47
2018-06-19T05:00:40.121Z,17.30
2018-06-19T05:03:23.201Z,14.77
2018-06-19T05:05:53.743Z,13.20
2018-06-19T05:08:28.207Z,12.53
2018-06-19T05:10:56.431Z,15.30
2018-06-19T05:13:28.147Z,14.17
2018-06-19T05:15:56.260Z,13.93
2018-06-19T05:18:24.431Z,13.83
2018-06-19T05:20:57.539Z,10.90
2018-06-19T05:23:25.692Z,13.77
2018-06-19T05:25:59.196Z,16.40
2018-06-19T05:28:28.415Z,11.38
2018-06-19T05:30:56.478Z,10.00
2018-06-19T05:33:25.667Z,11.48
2018-06-19T05:36:00.698Z,12.35
2018-06-19T05:38:30.868Z,11.97
2018-06-19T05:41:02.800Z,10.98
2018-06-19T05:43:36.308Z,12.50
2018-06-19T05:46:09.255Z,10.32
2018-06-19T05:48:48.337Z,12.95
2018-06-19T05:51:18.558Z,10.88
2018-06-19T05:53:46.835Z,9.43
2018-06-19T05:56:19.180Z,9.78
2018-06-19T05:58:48.375Z,8.75
2018-06-19T06:01:16.526Z,10.75
2018-06-19T06:03:44.711Z,10.72
2018-06-19T06:06:13.331Z,8.98
2018-06-19T06:08:42.498Z,9.95
2018-06-19T06:11:12.781Z,11.20
2018-06-19T06:13:41.936Z,9.30
2018-06-19T06:16:12.296Z,9.63
2018-06-19T06:18:40.449Z,10.65
2018-06-19T06:21:25.078Z,8.43
2018-06-19T06:23:55.379Z,9.00
2018-06-19T06:26:24.617Z,7.70
2018-06-19T06:28:52.813Z,10.53
2018-06-19T06:31:21.065Z,7.95
2018-06-19T06:33:51.698Z,7.85
2018-06-19T06:36:19.639Z,8.38
2018-06-19T06:38:52.535Z,10.18
2018-06-19T06:41:28.635Z,7.72
2018-06-19T06:44:01.987Z,7.42
2018-06-19T06:46:30.316Z,6.92
2018-06-19T06:48:59.478Z,7.20
2018-06-19T06:51:33.607Z,8.45
2018-06-19T06:54:01.756Z,7.15
2018-06-19T06:56:33.211Z,8.03
2018-06-19T06:59:01.398Z,6.37
2018-06-19T07:01:29.913Z,7.05
2018-06-19T07:04:02.784Z,6.40
2018-06-19T07:06:31.523Z,6.58
2018-06-19T07:08:59.786Z,7.30
2018-06-19T07:11:29.239Z,7.80
2018-06-19T07:13:58.426Z,6.53
2018-06-19T07:16:31.350Z,8.15
2018-06-19T07:19:12.129Z,6.30
2018-06-19T07:21:45.765Z,6.65
2018-06-19T07:24:25.166Z,6.15
2018-06-19T07:26:54.326Z,9.33
2018-06-19T07:29:26.313Z,7.87
2018-06-19T07:34:47.694Z,5.35
2018-06-19T07:37:19.388Z,6.37
2018-06-19T07:40:02.068Z,7.33
2018-06-19T07:42:35.871Z,5.92
2018-06-19T07:45:05.268Z,5.80
2018-06-19T07:47:34.489Z,7.65
2018-06-19T07:50:06.350Z,6.00
2018-06-19T07:52:34.582Z,6.30
2018-06-19T07:55:03.740Z,6.15
2018-06-19T07:57:32.111Z,6.28
2018-06-19T08:00:00.302Z,4.95
2018-06-19T08:02:29.477Z,7.85
2018-06-19T08:04:59.099Z,5.50
2018-06-19T08:07:29.856Z,5.35
2018-06-19T08:09:59.880Z,5.55
2018-06-19T08:12:38.469Z,7.67
2018-06-19T08:15:08.049Z,7.47
2018-06-19T08:17:36.675Z,5.60
2018-06-19T08:20:05.040Z,6.05
2018-06-19T08:22:34.332Z,6.28
2018-06-19T08:25:02.477Z,6.10
2018-06-19T08:27:30.949Z,6.03
2018-06-19T08:30:00.187Z,7.17
2018-06-19T08:32:28.419Z,5.22
2018-06-19T08:34:58.599Z,5.00
2018-06-19T08:37:28.593Z,5.12
2018-06-19T08:39:58.131Z,7.15
2018-06-19T08:42:26.270Z,5.45
2018-06-19T08:44:55.758Z,5.33
2018-06-19T08:47:28.497Z,7.45
2018-06-19T08:49:57.263Z,6.28
2018-06-19T08:52:26.587Z,9.38
2018-06-19T08:54:55.783Z,6.42
2018-06-19T08:57:25.996Z,6.03
2018-06-19T08:59:54.166Z,7.55
2018-06-19T09:02:22.338Z,6.67
2018-06-19T09:04:56.066Z,6.17
2018-06-19T09:07:29.188Z,6.03
2018-06-19T09:10:00.692Z,5.50
2018-06-19T09:12:29.440Z,4.65
2018-06-19T09:14:59.636Z,4.62
2018-06-19T09:17:28.821Z,4.37
2018-06-19T09:19:58.024Z,4.70
2018-06-19T09:22:31.594Z,4.00
2018-06-19T09:24:59.810Z,5.70
2018-06-19T09:27:28.058Z,4.58
2018-06-19T09:29:56.239Z,4.20
2018-06-19T09:32:24.592Z,5.78
2018-06-19T09:34:52.810Z,6.20
2018-06-19T09:37:23.172Z,6.03
2018-06-19T09:39:51.484Z,5.28
2018-06-19T09:42:19.558Z,5.55
2018-06-19T09:44:47.735Z,6.65
2018-06-19T09:47:18.013Z,7.08
2018-06-19T09:49:51.957Z,6.90
2018-06-19T09:52:20.331Z,7.40
2018-06-19T09:54:53.643Z,9.13
2018-06-19T09:57:22.876Z,7.33
2018-06-19T09:59:52.067Z,8.23
2018-06-19T10:02:22.260Z,7.12
2018-06-19T10:04:53.489Z,8.20
2018-06-19T10:07:22.795Z,10.50
2018-06-19T10:09:57.526Z,7.12
2018-06-19T10:12:26.930Z,7.60
2018-06-19T10:14:59.839Z,7.35
2018-06-19T10:17:27.801Z,8.78
2018-06-19T10:20:00.672Z,7.25
2018-06-19T10:22:28.833Z,8.18
2018-06-19T10:24:58.040Z,6.67
2018-06-19T10:27:32.413Z,7.45
2018-06-19T10:30:00.577Z,7.20
2018-06-19T10:32:28.820Z,8.75
2018-06-19T10:34:57.062Z,8.10
2018-06-19T10:37:25.491Z,7.80
2018-06-19T10:39:55.443Z,8.20
2018-06-19T10:42:24.764Z,7.87
2018-06-19T10:44:57.489Z,9.68
2018-06-19T10:47:25.651Z,9.35
2018-06-19T10:49:53.951Z,8.53
2018-06-19T10:52:23.143Z,10.53
2018-06-19T10:54:59.440Z,9.35
2018-06-19T10:57:30.779Z,7.90
2018-06-19T10:59:59.021Z,9.30
2018-06-19T11:02:32.216Z,7.65
2018-06-19T11:05:00.374Z,7.47
2018-06-19T11:07:29.258Z,8.65
2018-06-19T11:09:58.798Z,7.35
2018-06-19T11:12:28.551Z,8.05
2018-06-19T11:14:56.743Z,9.23
2018-06-19T11:17:26.137Z,8.53
2018-06-19T11:19:54.449Z,7.80
2018-06-19T11:22:22.608Z,7.85
2018-06-19T11:24:50.792Z,8.78
2018-06-19T11:27:22.510Z,8.58
2018-06-19T11:29:51.187Z,7.60
2018-06-19T11:32:19.543Z,7.90
2018-06-19T11:34:48.097Z,7.80
2018-06-19T11:37:20.218Z,8.78
2018-06-19T11:39:50.405Z,6.17
2018-06-19T11:42:18.579Z,8.10
2018-06-19T11:44:48.853Z,6.78
2018-06-19T11:47:23.362Z,7.85
2018-06-19T11:49:51.567Z,6.35
2018-06-19T11:52:19.744Z,6.42
2018-06-19T11:54:48.212Z,5.22
2018-06-19T11:57:21.931Z,3.20
2018-06-19T11:59:50.095Z,2.77
2018-06-19T12:02:18.289Z,2.10
2018-06-19T12:04:46.251Z,2.50
2018-06-19T12:07:16.498Z,2.10
2018-06-19T12:09:45.652Z,3.92
2018-06-19T12:12:13.855Z,2.45
2018-06-19T12:14:44.599Z,2.40
2018-06-19T12:17:13.425Z,2.62
2018-06-19T12:19:41.638Z,2.08
2018-06-19T12:22:09.822Z,2.60
2018-06-19T12:24:38.007Z,2.08
2018-06-19T12:27:06.301Z,3.70
2018-06-19T12:29:38.165Z,2.50
2018-06-19T12:32:08.374Z,2.22
2018-06-19T12:34:37.779Z,2.87
2018-06-19T12:37:06.971Z,2.27
2018-06-19T12:39:36.241Z,1.80
2018-06-19T12:42:05.734Z,2.25
2018-06-19T12:44:34.955Z,3.67
2018-06-19T12:47:03.219Z,2.17
2018-06-19T12:49:44.235Z,2.77
2018-06-19T12:52:18.658Z,1.80
2018-06-19T12:54:59.338Z,2.22
2018-06-19T12:57:27.599Z,2.20
2018-06-19T12:59:55.732Z,1.95
2018-06-19T13:02:27.703Z,1.72
2018-06-19T13:05:07.293Z,1.40
2018-06-19T13:07:40.709Z,1.95
2018-06-19T13:10:09.796Z,2.33
2018-06-19T13:13:22.821Z,2.30
2018-06-19T13:15:51.971Z,1.62
2018-06-19T13:18:35.002Z,3.05
2018-06-19T13:21:04.101Z,1.90
2018-06-19T13:23:37.414Z,1.95
2018-06-19T13:26:07.609Z,2.17
2018-06-19T13:29:50.037Z,2.02
2018-06-19T13:32:19.285Z,2.20
2018-06-19T13:34:53.941Z,1.98
2018-06-19T13:37:22.150Z,2.05
2018-06-19T13:39:56.858Z,2.10
2018-06-19T13:42:37.442Z,3.77
2018-06-19T13:45:08.175Z,1.75
2018-06-19T13:47:40.558Z,2.15
2018-06-19T13:50:12.923Z,3.77
2018-06-19T13:52:41.120Z,1.92
2018-06-19T13:57:42.686Z,1.85
2018-06-19T14:00:27.007Z,1.20
2018-06-19T14:02:56.304Z,3.58
2018-06-19T14:05:24.511Z,1.92
2018-06-19T14:08:06.786Z,1.50
2018-06-19T14:10:46.120Z,1.22
2018-06-19T14:13:17.685Z,2.17
2018-06-19T14:15:46.968Z,1.20
2018-06-19T14:18:20.530Z,1.00
2018-06-19T14:20:48.602Z,1.35
2018-06-19T14:23:18.799Z,3.60
2018-06-19T14:25:47.069Z,1.77
2018-06-19T14:28:18.742Z,1.32
2018-06-19T14:30:50.728Z,1.40
2018-06-19T14:33:18.881Z,2.58
2018-06-19T14:35:49.052Z,1.65
2018-06-19T14:38:18.252Z,1.00
2018-06-19T14:40:51.728Z,0.90
2018-06-19T14:43:19.968Z,0.93
2018-06-19T14:45:48.091Z,0.70
2018-06-19T14:48:20.407Z,1.27
2018-06-19T14:50:48.594Z,1.07
2018-06-19T14:53:21.017Z,0.70
2018-06-19T14:55:49.201Z,0.80
2018-06-19T14:58:17.682Z,0.98
2018-06-19T15:00:47.008Z,1.00
2018-06-19T15:03:17.202Z,0.80
2018-06-19T15:05:45.345Z,1.40
2018-06-19T15:08:13.528Z,0.98
2018-06-19T15:10:41.772Z,1.25
2018-06-19T15:13:10.972Z,1.60
2018-06-19T15:15:39.317Z,1.37
2018-06-19T15:18:07.480Z,1.30
2018-06-19T15:20:40.944Z,0.80
2018-06-19T15:23:09.206Z,1.00
2018-06-19T15:25:38.331Z,0.98
2018-06-19T15:28:09.299Z,1.17
2018-06-19T15:30:37.457Z,1.22
2018-06-19T15:33:05.727Z,1.05
2018-06-19T15:35:33.931Z,1.50
2018-06-19T15:38:02.182Z,1.52
2018-06-19T15:40:30.674Z,0.90
2018-06-19T15:42:59.899Z,0.72
2018-06-19T15:45:29.143Z,1.15
2018-06-19T15:48:00.606Z,0.75
2018-06-19T15:50:29.057Z,0.75
2018-06-19T15:52:59.469Z,0.70
2018-06-19T15:55:27.759Z,0.93
2018-06-19T15:57:57.929Z,0.62
2018-06-19T16:00:27.130Z,1.00
2018-06-19T16:02:56.324Z,0.95
2018-06-19T16:05:24.599Z,1.15
2018-06-19T16:07:58.133Z,1.07
2018-06-19T16:10:31.084Z,0.57
2018-06-19T16:13:02.818Z,0.80
2018-06-19T16:15:31.230Z,0.80
2018-06-19T16:18:03.740Z,0.80
2018-06-19T16:20:33.938Z,2.77
2018-06-19T16:23:03.124Z,0.70
2018-06-19T16:25:31.293Z,1.30
2018-06-19T16:28:00.723Z,1.02
2018-06-19T16:30:29.930Z,0.70
2018-06-19T16:33:02.106Z,0.82
2018-06-19T16:35:30.429Z,0.88
2018-06-19T16:37:59.654Z,1.85
2018-06-19T16:40:29.583Z,1.42
2018-06-19T16:42:57.527Z,1.05
2018-06-19T16:45:28.864Z,0.70
2018-06-19T16:47:57.204Z,0.90
2018-06-19T16:50:27.361Z,0.72
2018-06-19T16:52:55.732Z,2.05
2018-06-19T16:55:27.386Z,0.68
2018-06-19T16:57:56.549Z,1.60
2018-06-19T17:00:25.714Z,1.00
2018-06-19T17:02:54.026Z,0.75
2018-06-19T17:05:23.194Z,1.27
2018-06-19T17:07:51.174Z,1.22
2018-06-19T17:10:21.410Z,0.70
2018-06-19T17:12:50.565Z,0.50
2018-06-19T17:15:18.737Z,0.60
2018-06-19T17:17:46.947Z,2.67
2018-06-19T17:20:15.079Z,0.95
2018-06-19T17:22:47.938Z,1.17
2018-06-19T17:25:17.752Z,0.90
2018-06-19T17:27:47.994Z,0.62
2018-06-19T17:30:16.195Z,0.90
2018-06-19T17:32:45.462Z,0.85
2018-06-19T17:35:13.744Z,1.20
2018-06-19T17:37:42.015Z,2.15
2018-06-19T17:40:10.170Z,0.60
2018-06-19T17:42:38.455Z,0.90
2018-06-19T17:45:06.754Z,1.10
2018-06-19T17:47:35.028Z,2.65
2018-06-19T17:50:03.299Z,1.20
2018-06-19T17:52:34.645Z,1.10
2018-06-19T17:55:02.933Z,1.00
2018-06-19T17:57:32.445Z,2.20
2018-06-19T18:00:04.284Z,1.67
2018-06-19T18:02:35.884Z,1.62
2018-06-19T18:05:06.355Z,1.50
2018-06-19T18:07:34.703Z,1.00
2018-06-19T18:10:08.511Z,1.32
2018-06-19T18:12:37.866Z,0.80
2018-06-19T18:15:08.022Z,2.05
2018-06-19T18:17:36.305Z,1.10
2018-06-19T18:20:05.763Z,1.00
2018-06-19T18:22:35.977Z,0.93
2018-06-19T18:25:04.213Z,1.12
2018-06-19T18:27:32.420Z,2.20
2018-06-19T18:30:00.766Z,1.25
2018-06-19T18:32:29.994Z,0.90
2018-06-19T18:34:59.196Z,1.67
2018-06-19T18:37:27.824Z,2.05
2018-06-19T18:39:57.171Z,1.07
2018-06-19T18:42:25.737Z,1.07
2018-06-19T18:44:54.284Z,1.10
2018-06-19T18:47:23.703Z,1.30
2018-06-19T18:49:56.229Z,1.40
2018-06-19T18:52:27.772Z,5.12
2018-06-19T18:54:55.901Z,2.30
2018-06-19T18:57:24.095Z,1.60
2018-06-19T18:59:56.886Z,1.27
2018-06-19T19:02:25.856Z,3.05
2018-06-19T19:04:54.085Z,1.50
2018-06-19T19:07:22.361Z,2.35
2018-06-19T19:09:56.942Z,1.47
2018-06-19T19:12:26.337Z,5.07
2018-06-19T19:15:04.752Z,1.00
2018-06-19T19:17:41.564Z,2.37
2018-06-19T19:20:13.275Z,1.47
2018-06-19T19:22:42.470Z,2.90
2018-06-19T19:25:10.669Z,1.50
2018-06-19T19:27:44.228Z,2.60
2018-06-19T19:30:13.542Z,2.60
2018-06-19T19:32:41.903Z,2.90
2018-06-19T19:35:11.060Z,3.07
2018-06-19T19:38:44.923Z,1.82
2018-06-19T19:41:13.336Z,1.40
2018-06-19T19:43:41.567Z,1.07
2018-06-19T19:46:14.020Z,2.70
2018-06-19T19:48:49.032Z,1.77
2018-06-19T19:51:17.203Z,1.40
2018-06-19T19:53:46.443Z,1.60
2018-06-19T19:56:20.266Z,2.70
2018-06-19T19:58:52.664Z,1.62
2018-06-19T20:01:21.995Z,3.33
2018-06-19T20:03:50.176Z,1.43
2018-06-19T20:06:19.475Z,1.60
2018-06-19T20:08:47.612Z,2.07
2018-06-19T20:11:16.853Z,2.07
2018-06-19T20:13:47.016Z,2.23
2018-06-19T20:16:15.222Z,3.93
2018-06-19T20:18:43.452Z,2.50
2018-06-19T20:21:12.611Z,1.90
2018-06-19T20:23:41.846Z,2.40
2018-06-19T20:26:10.083Z,2.63
2018-06-19T20:28:38.285Z,1.80
2018-06-19T20:31:08.437Z,2.33
2018-06-19T20:33:36.724Z,1.70
2018-06-19T20:36:04.979Z,3.00
2018-06-19T20:38:33.516Z,2.70
2018-06-19T20:41:01.874Z,2.47
2018-06-19T20:43:29.992Z,2.23
2018-06-19T20:45:58.270Z,4.40
2018-06-19T20:48:26.694Z,2.30
2018-06-19T20:50:54.856Z,4.25
2018-06-19T20:53:29.915Z,3.93
2018-06-19T20:56:04.372Z,2.50
2018-06-19T20:58:32.646Z,2.70
2018-06-19T21:01:00.867Z,2.67
2018-06-19T21:03:29.202Z,3.13
2018-06-19T21:05:57.583Z,2.23
2018-06-19T21:08:31.125Z,3.77
2018-06-19T21:10:59.721Z,2.20
2018-06-19T21:13:27.989Z,4.43
2018-06-19T21:15:58.354Z,2.83
2018-06-19T21:18:35.078Z,3.10
2018-06-19T21:21:03.647Z,2.37
2018-06-19T21:23:31.926Z,3.43
2018-06-19T21:26:00.213Z,3.50
2018-06-19T21:28:28.907Z,6.03
2018-06-19T21:30:57.248Z,3.57
2018-06-19T21:33:27.500Z,2.90
2018-06-19T21:35:55.819Z,3.17
2018-06-19T21:38:24.095Z,3.03
2018-06-19T21:40:52.416Z,5.13
2018-06-19T21:43:21.730Z,3.47
2018-06-19T21:45:50.427Z,3.47
2018-06-19T21:48:18.761Z,4.43
2018-06-19T21:50:47.062Z,5.00
2018-06-19T21:53:15.571Z,3.33
2018-06-19T21:55:49.519Z,3.30
2018-06-19T21:58:21.461Z,5.20
2018-06-19T22:00:49.766Z,4.83
2018-06-19T22:03:18.081Z,5.60
2018-06-19T22:05:46.424Z,5.33
2018-06-19T22:08:16.736Z,3.80
2018-06-19T22:10:45.079Z,4.87
2018-06-19T22:13:13.408Z,5.73
2018-06-19T22:15:42.701Z,3.87
2018-06-19T22:18:10.970Z,4.93
2018-06-19T22:20:40.300Z,3.63
2018-06-19T22:23:08.703Z,3.10
2018-06-19T22:25:37.062Z,3.10
2018-06-19T22:28:05.426Z,7.60
2018-06-19T22:30:33.739Z,3.27
2018-06-19T22:33:02.066Z,6.80
2018-06-19T22:35:31.437Z,3.03
2018-06-19T22:37:59.910Z,3.00
2018-06-19T22:40:28.246Z,3.23
2018-06-19T22:42:56.531Z,3.47
2018-06-19T22:45:24.777Z,4.80
2018-06-19T22:47:53.125Z,3.77
2018-06-19T22:50:21.462Z,3.33
2018-06-19T22:52:49.758Z,3.77
2018-06-19T22:55:17.999Z,6.40
2018-06-19T22:57:49.467Z,3.87
2018-06-19T23:00:18.648Z,5.43
2018-06-19T23:02:46.962Z,5.80
2018-06-19T23:05:15.280Z,4.33
2018-06-19T23:07:43.572Z,5.47
2018-06-19T23:10:15.079Z,6.73
2018-06-19T23:12:43.416Z,5.57
2018-06-19T23:15:13.713Z,4.83
2018-06-19T23:17:41.974Z,6.30
2018-06-19T23:20:10.476Z,3.53
2018-06-19T23:22:38.534Z,4.63
2018-06-19T23:25:06.821Z,7.33
2018-06-19T23:27:36.173Z,6.33
2018-06-19T23:30:04.658Z,4.37
2018-06-19T23:32:33.897Z,3.87
2018-06-19T23:35:04.319Z,6.17
2018-06-19T23:37:32.565Z,4.77
2018-06-19T23:40:02.095Z,5.70
2018-06-19T23:42:33.024Z,3.87
2018-06-19T23:45:01.727Z,4.83
2018-06-19T23:47:34.467Z,3.50
2018-06-19T23:50:03.776Z,6.47
2018-06-19T23:52:32.105Z,3.33
2018-06-19T23:55:00.725Z,6.97
2018-06-19T23:57:29.053Z,3.50
2018-06-19T23:59:57.343Z,3.73
